sensor_id;sensor_type;location;lat;lon;timestamp;temperature;humidity
47576;DHT22;33304;52.456;13.328;2022-09-29T00:01:42;8.30;99.90
47576;DHT22;33304;52.456;13.328;2022-09-29T00:04:10;8.30;99.90
47576;DHT22;33304;52.456;13.328;2022-09-29T00:06:37;8.40;99.90
47576;DHT22;33304;52.456;13.328;2022-09-29T00:09:05;8.30;99.90
47576;DHT22;33304;52.456;13.328;2022-09-29T00:11:33;8.40;99.90
47576;DHT22;33304;52.456;13.328;2022-09-29T00:14:00;8.20;99.90
47576;DHT22;33304;52.456;13.328;2022-09-29T00:16:27;8.10;99.90
47576;DHT22;33304;52.456;13.328;2022-09-29T00:18:55;8.10;99.90
47576;DHT22;33304;52.456;13.328;2022-09-29T00:21:22;8.00;99.90
47576;DHT22;33304;52.456;13.328;2022-09-29T00:23:49;7.90;99.90
47576;DHT22;33304;52.456;13.328;2022-09-29T00:26:19;7.80;99.90
47576;DHT22;33304;52.456;13.328;2022-09-29T00:28:49;7.80;99.90
47576;DHT22;33304;52.456;13.328;2022-09-29T00:31:19;7.80;99.90
47576;DHT22;33304;52.456;13.328;2022-09-29T00:33:46;7.90;99.90
47576;DHT22;33304;52.456;13.328;2022-09-29T00:36:15;7.90;99.90
47576;DHT22;33304;52.456;13.328;2022-09-29T00:38:44;7.90;99.90
47576;DHT22;33304;52.456;13.328;2022-09-29T00:41:13;7.80;99.90
47576;DHT22;33304;52.456;13.328;2022-09-29T00:43:53;7.80;99.90
47576;DHT22;33304;52.456;13.328;2022-09-29T00:46:25;7.80;99.90
47576;DHT22;33304;52.456;13.328;2022-09-29T00:48:55;7.80;99.90
47576;DHT22;33304;52.456;13.328;2022-09-29T00:51:25;7.70;99.90
47576;DHT22;33304;52.456;13.328;2022-09-29T00:53:53;7.70;99.90
47576;DHT22;33304;52.456;13.328;2022-09-29T00:56:20;7.80;99.90
47576;DHT22;33304;52.456;13.328;2022-09-29T00:58:51;7.80;99.90
47576;DHT22;33304;52.456;13.328;2022-09-29T01:01:20;7.70;99.90
47576;DHT22;33304;52.456;13.328;2022-09-29T01:03:50;7.80;99.90
47576;DHT22;33304;52.456;13.328;2022-09-29T01:06:21;7.80;99.90
47576;DHT22;33304;52.456;13.328;2022-09-29T01:08:52;7.70;99.90
47576;DHT22;33304;52.456;13.328;2022-09-29T01:11:23;7.70;99.90
47576;DHT22;33304;52.456;13.328;2022-09-29T01:13:52;7.70;99.90
47576;DHT22;33304;52.456;13.328;2022-09-29T01:16:20;7.70;99.90
47576;DHT22;33304;52.456;13.328;2022-09-29T01:18:47;7.70;99.90
47576;DHT22;33304;52.456;13.328;2022-09-29T01:21:22;7.60;99.90
47576;DHT22;33304;52.456;13.328;2022-09-29T01:24:19;7.70;99.90
47576;DHT22;33304;52.456;13.328;2022-09-29T01:27:13;7.60;99.90
47576;DHT22;33304;52.456;13.328;2022-09-29T01:30:17;7.50;99.90
47576;DHT22;33304;52.456;13.328;2022-09-29T01:33:08;7.60;99.90
47576;DHT22;33304;52.456;13.328;2022-09-29T01:35:45;7.60;99.90
47576;DHT22;33304;52.456;13.328;2022-09-29T01:38:29;7.50;99.90
47576;DHT22;33304;52.456;13.328;2022-09-29T01:41:03;7.50;99.90
47576;DHT22;33304;52.456;13.328;2022-09-29T01:43:35;7.50;99.90
47576;DHT22;33304;52.456;13.328;2022-09-29T01:46:07;7.60;99.90
47576;DHT22;33304;52.456;13.328;2022-09-29T01:48:39;7.50;99.90
47576;DHT22;33304;52.456;13.328;2022-09-29T01:51:12;7.50;99.90
47576;DHT22;33304;52.456;13.328;2022-09-29T01:53:45;7.50;99.90
47576;DHT22;33304;52.456;13.328;2022-09-29T01:56:16;7.60;99.90
47576;DHT22;33304;52.456;13.328;2022-09-29T01:58:50;7.60;99.90
47576;DHT22;33304;52.456;13.328;2022-09-29T02:01:21;7.60;99.90
47576;DHT22;33304;52.456;13.328;2022-09-29T02:03:53;7.50;99.90
47576;DHT22;33304;52.456;13.328;2022-09-29T02:06:25;7.50;99.90
47576;DHT22;33304;52.456;13.328;2022-09-29T02:08:55;7.50;99.90
47576;DHT22;33304;52.456;13.328;2022-09-29T02:11:22;7.50;99.90
47576;DHT22;33304;52.456;13.328;2022-09-29T02:13:54;7.60;99.90
47576;DHT22;33304;52.456;13.328;2022-09-29T02:16:27;7.60;99.90
47576;DHT22;33304;52.456;13.328;2022-09-29T02:18:59;7.70;99.90
47576;DHT22;33304;52.456;13.328;2022-09-29T02:21:28;7.70;99.90
47576;DHT22;33304;52.456;13.328;2022-09-29T02:23:55;7.70;99.90
47576;DHT22;33304;52.456;13.328;2022-09-29T02:26:23;7.60;99.90
47576;DHT22;33304;52.456;13.328;2022-09-29T02:28:52;7.60;99.90
47576;DHT22;33304;52.456;13.328;2022-09-29T02:31:20;7.70;99.90
47576;DHT22;33304;52.456;13.328;2022-09-29T02:33:47;7.70;99.90
47576;DHT22;33304;52.456;13.328;2022-09-29T02:36:27;7.70;99.90
47576;DHT22;33304;52.456;13.328;2022-09-29T02:39:01;7.70;99.90
47576;DHT22;33304;52.456;13.328;2022-09-29T02:41:35;7.90;99.90
47576;DHT22;33304;52.456;13.328;2022-09-29T02:44:20;8.00;99.90
47576;DHT22;33304;52.456;13.328;2022-09-29T02:47:02;7.90;99.90
47576;DHT22;33304;52.456;13.328;2022-09-29T02:49:46;7.90;99.90
47576;DHT22;33304;52.456;13.328;2022-09-29T02:52:23;7.80;99.90
47576;DHT22;33304;52.456;13.328;2022-09-29T02:54:59;7.90;99.90
47576;DHT22;33304;52.456;13.328;2022-09-29T02:57:34;8.10;99.90
47576;DHT22;33304;52.456;13.328;2022-09-29T03:00:06;8.20;99.90
47576;DHT22;33304;52.456;13.328;2022-09-29T03:02:35;8.20;99.90
47576;DHT22;33304;52.456;13.328;2022-09-29T03:05:04;8.10;99.90
47576;DHT22;33304;52.456;13.328;2022-09-29T03:07:33;8.10;99.90
47576;DHT22;33304;52.456;13.328;2022-09-29T03:10:01;8.10;99.90
47576;DHT22;33304;52.456;13.328;2022-09-29T03:12:28;8.00;99.90
47576;DHT22;33304;52.456;13.328;2022-09-29T03:14:55;8.10;99.90
47576;DHT22;33304;52.456;13.328;2022-09-29T03:17:22;8.10;99.90
47576;DHT22;33304;52.456;13.328;2022-09-29T03:19:50;8.00;99.90
47576;DHT22;33304;52.456;13.328;2022-09-29T03:22:17;8.00;99.90
47576;DHT22;33304;52.456;13.328;2022-09-29T03:24:45;8.00;99.90
47576;DHT22;33304;52.456;13.328;2022-09-29T03:27:13;8.30;99.90
47576;DHT22;33304;52.456;13.328;2022-09-29T03:29:40;8.40;99.90
47576;DHT22;33304;52.456;13.328;2022-09-29T03:32:08;8.50;99.90
47576;DHT22;33304;52.456;13.328;2022-09-29T03:34:35;8.50;99.90
47576;DHT22;33304;52.456;13.328;2022-09-29T03:37:03;8.40;99.90
47576;DHT22;33304;52.456;13.328;2022-09-29T03:39:30;8.30;99.90
47576;DHT22;33304;52.456;13.328;2022-09-29T03:41:59;8.40;99.90
47576;DHT22;33304;52.456;13.328;2022-09-29T03:44:26;8.30;99.90
47576;DHT22;33304;52.456;13.328;2022-09-29T03:46:53;8.20;99.90
47576;DHT22;33304;52.456;13.328;2022-09-29T03:49:20;8.20;99.90
47576;DHT22;33304;52.456;13.328;2022-09-29T03:51:47;8.20;99.90
47576;DHT22;33304;52.456;13.328;2022-09-29T03:54:14;8.30;99.90
47576;DHT22;33304;52.456;13.328;2022-09-29T03:56:41;8.20;99.90
47576;DHT22;33304;52.456;13.328;2022-09-29T03:59:10;8.20;99.90
47576;DHT22;33304;52.456;13.328;2022-09-29T04:01:43;8.10;99.90
47576;DHT22;33304;52.456;13.328;2022-09-29T04:04:22;8.10;99.90
47576;DHT22;33304;52.456;13.328;2022-09-29T04:06:49;8.30;99.90
47576;DHT22;33304;52.456;13.328;2022-09-29T04:09:16;8.20;99.90
47576;DHT22;33304;52.456;13.328;2022-09-29T04:11:43;8.10;99.90
47576;DHT22;33304;52.456;13.328;2022-09-29T04:14:11;8.10;99.90
47576;DHT22;33304;52.456;13.328;2022-09-29T04:16:39;8.00;99.90
47576;DHT22;33304;52.456;13.328;2022-09-29T04:19:06;8.00;99.90
47576;DHT22;33304;52.456;13.328;2022-09-29T04:21:33;8.00;99.90
47576;DHT22;33304;52.456;13.328;2022-09-29T04:24:00;8.00;99.90
47576;DHT22;33304;52.456;13.328;2022-09-29T04:26:28;8.10;99.90
47576;DHT22;33304;52.456;13.328;2022-09-29T04:28:55;8.00;99.90
47576;DHT22;33304;52.456;13.328;2022-09-29T04:31:23;8.00;99.90
47576;DHT22;33304;52.456;13.328;2022-09-29T04:33:51;8.10;99.90
47576;DHT22;33304;52.456;13.328;2022-09-29T04:36:18;8.10;99.90
47576;DHT22;33304;52.456;13.328;2022-09-29T04:38:45;8.30;99.90
47576;DHT22;33304;52.456;13.328;2022-09-29T04:41:13;8.30;99.90
47576;DHT22;33304;52.456;13.328;2022-09-29T04:43:40;8.30;99.90
47576;DHT22;33304;52.456;13.328;2022-09-29T04:46:08;8.10;99.90
47576;DHT22;33304;52.456;13.328;2022-09-29T04:48:37;8.10;99.90
47576;DHT22;33304;52.456;13.328;2022-09-29T04:51:04;8.10;99.90
47576;DHT22;33304;52.456;13.328;2022-09-29T04:53:33;8.10;99.90
47576;DHT22;33304;52.456;13.328;2022-09-29T04:56:04;8.10;99.90
47576;DHT22;33304;52.456;13.328;2022-09-29T04:58:32;8.10;99.90
47576;DHT22;33304;52.456;13.328;2022-09-29T05:01:05;8.10;99.90
47576;DHT22;33304;52.456;13.328;2022-09-29T05:03:32;8.20;99.90
47576;DHT22;33304;52.456;13.328;2022-09-29T05:06:01;8.20;99.90
47576;DHT22;33304;52.456;13.328;2022-09-29T05:08:28;8.20;99.90
47576;DHT22;33304;52.456;13.328;2022-09-29T05:10:55;8.10;99.90
47576;DHT22;33304;52.456;13.328;2022-09-29T05:13:23;8.20;99.90
47576;DHT22;33304;52.456;13.328;2022-09-29T05:15:54;8.10;99.90
47576;DHT22;33304;52.456;13.328;2022-09-29T05:18:21;8.10;99.90
47576;DHT22;33304;52.456;13.328;2022-09-29T05:20:48;8.10;99.90
47576;DHT22;33304;52.456;13.328;2022-09-29T05:23:17;8.10;99.90
47576;DHT22;33304;52.456;13.328;2022-09-29T05:25:44;8.10;99.90
47576;DHT22;33304;52.456;13.328;2022-09-29T05:28:12;8.00;99.90
47576;DHT22;33304;52.456;13.328;2022-09-29T05:30:40;8.00;99.90
47576;DHT22;33304;52.456;13.328;2022-09-29T05:33:08;7.90;99.90
47576;DHT22;33304;52.456;13.328;2022-09-29T05:35:36;7.90;99.90
47576;DHT22;33304;52.456;13.328;2022-09-29T05:38:03;8.00;99.90
47576;DHT22;33304;52.456;13.328;2022-09-29T05:40:31;8.00;99.90
47576;DHT22;33304;52.456;13.328;2022-09-29T05:42:58;8.10;99.90
47576;DHT22;33304;52.456;13.328;2022-09-29T05:45:26;8.10;99.90
47576;DHT22;33304;52.456;13.328;2022-09-29T05:47:54;8.00;99.90
47576;DHT22;33304;52.456;13.328;2022-09-29T05:50:21;8.10;99.90
47576;DHT22;33304;52.456;13.328;2022-09-29T05:52:48;8.40;99.90
47576;DHT22;33304;52.456;13.328;2022-09-29T05:55:18;8.50;99.90
47576;DHT22;33304;52.456;13.328;2022-09-29T05:57:48;8.60;99.90
47576;DHT22;33304;52.456;13.328;2022-09-29T06:00:15;8.60;97.00
47576;DHT22;33304;52.456;13.328;2022-09-29T06:02:42;8.50;96.10
47576;DHT22;33304;52.456;13.328;2022-09-29T06:05:09;8.50;96.90
47576;DHT22;33304;52.456;13.328;2022-09-29T06:07:37;8.40;97.20
47576;DHT22;33304;52.456;13.328;2022-09-29T06:10:04;8.40;97.60
47576;DHT22;33304;52.456;13.328;2022-09-29T06:12:33;8.50;99.90
47576;DHT22;33304;52.456;13.328;2022-09-29T06:15:03;8.60;99.30
47576;DHT22;33304;52.456;13.328;2022-09-29T06:17:30;8.50;97.10
47576;DHT22;33304;52.456;13.328;2022-09-29T06:19:57;8.60;95.60
47576;DHT22;33304;52.456;13.328;2022-09-29T06:22:24;8.60;94.00
47576;DHT22;33304;52.456;13.328;2022-09-29T06:24:54;8.50;91.90
47576;DHT22;33304;52.456;13.328;2022-09-29T06:27:21;8.50;92.70
47576;DHT22;33304;52.456;13.328;2022-09-29T06:29:48;8.70;90.20
47576;DHT22;33304;52.456;13.328;2022-09-29T06:32:17;8.70;90.00
47576;DHT22;33304;52.456;13.328;2022-09-29T06:34:44;8.70;90.10
47576;DHT22;33304;52.456;13.328;2022-09-29T06:37:28;8.60;88.70
47576;DHT22;33304;52.456;13.328;2022-09-29T06:40:03;8.50;89.10
47576;DHT22;33304;52.456;13.328;2022-09-29T06:42:30;8.80;86.30
47576;DHT22;33304;52.456;13.328;2022-09-29T06:44:58;8.70;77.70
47576;DHT22;33304;52.456;13.328;2022-09-29T06:47:26;8.80;78.10
47576;DHT22;33304;52.456;13.328;2022-09-29T06:49:53;8.70;75.90
47576;DHT22;33304;52.456;13.328;2022-09-29T06:52:20;8.60;77.70
47576;DHT22;33304;52.456;13.328;2022-09-29T06:54:47;8.50;79.10
47576;DHT22;33304;52.456;13.328;2022-09-29T06:57:14;8.50;82.90
47576;DHT22;33304;52.456;13.328;2022-09-29T06:59:43;8.60;84.30
47576;DHT22;33304;52.456;13.328;2022-09-29T07:02:11;8.70;90.40
47576;DHT22;33304;52.456;13.328;2022-09-29T07:04:40;8.70;87.50
47576;DHT22;33304;52.456;13.328;2022-09-29T07:07:07;8.90;87.10
47576;DHT22;33304;52.456;13.328;2022-09-29T07:09:34;8.90;82.50
47576;DHT22;33304;52.456;13.328;2022-09-29T07:12:01;9.10;79.50
47576;DHT22;33304;52.456;13.328;2022-09-29T07:14:28;9.00;73.70
47576;DHT22;33304;52.456;13.328;2022-09-29T07:16:55;9.00;74.90
47576;DHT22;33304;52.456;13.328;2022-09-29T07:19:24;8.80;75.90
47576;DHT22;33304;52.456;13.328;2022-09-29T07:21:52;9.00;76.20
47576;DHT22;33304;52.456;13.328;2022-09-29T07:24:19;9.10;74.50
47576;DHT22;33304;52.456;13.328;2022-09-29T07:26:47;9.20;74.10
47576;DHT22;33304;52.456;13.328;2022-09-29T07:29:14;9.40;69.60
47576;DHT22;33304;52.456;13.328;2022-09-29T07:31:43;9.40;65.80
47576;DHT22;33304;52.456;13.328;2022-09-29T07:34:11;9.50;65.90
47576;DHT22;33304;52.456;13.328;2022-09-29T07:36:38;9.60;62.70
47576;DHT22;33304;52.456;13.328;2022-09-29T07:39:06;9.50;61.20
47576;DHT22;33304;52.456;13.328;2022-09-29T07:41:33;9.40;62.30
47576;DHT22;33304;52.456;13.328;2022-09-29T07:44:01;9.40;63.70
47576;DHT22;33304;52.456;13.328;2022-09-29T07:46:28;9.40;63.60
47576;DHT22;33304;52.456;13.328;2022-09-29T07:48:57;9.60;63.00
47576;DHT22;33304;52.456;13.328;2022-09-29T07:51:25;9.60;61.80
47576;DHT22;33304;52.456;13.328;2022-09-29T07:53:52;9.50;61.80
47576;DHT22;33304;52.456;13.328;2022-09-29T07:56:22;9.60;61.80
47576;DHT22;33304;52.456;13.328;2022-09-29T07:58:50;9.70;60.60
47576;DHT22;33304;52.456;13.328;2022-09-29T08:01:18;9.80;59.80
47576;DHT22;33304;52.456;13.328;2022-09-29T08:03:49;9.80;58.70
47576;DHT22;33304;52.456;13.328;2022-09-29T08:06:16;10.00;57.30
47576;DHT22;33304;52.456;13.328;2022-09-29T08:08:45;10.10;56.40
47576;DHT22;33304;52.456;13.328;2022-09-29T08:11:13;9.80;56.70
47576;DHT22;33304;52.456;13.328;2022-09-29T08:13:42;9.90;58.10
47576;DHT22;33304;52.456;13.328;2022-09-29T08:16:12;9.80;57.30
47576;DHT22;33304;52.456;13.328;2022-09-29T08:18:40;9.80;57.60
47576;DHT22;33304;52.456;13.328;2022-09-29T08:21:09;10.00;55.10
47576;DHT22;33304;52.456;13.328;2022-09-29T08:23:38;9.90;56.20
47576;DHT22;33304;52.456;13.328;2022-09-29T08:26:10;10.00;54.90
47576;DHT22;33304;52.456;13.328;2022-09-29T08:28:39;10.20;54.60
47576;DHT22;33304;52.456;13.328;2022-09-29T08:31:10;10.50;52.60
47576;DHT22;33304;52.456;13.328;2022-09-29T08:33:38;10.40;51.40
47576;DHT22;33304;52.456;13.328;2022-09-29T08:36:06;10.60;49.60
47576;DHT22;33304;52.456;13.328;2022-09-29T08:38:40;10.50;48.50
47576;DHT22;33304;52.456;13.328;2022-09-29T08:41:19;10.80;48.40
47576;DHT22;33304;52.456;13.328;2022-09-29T08:43:50;11.00;47.60
47576;DHT22;33304;52.456;13.328;2022-09-29T08:46:24;11.20;45.00
47576;DHT22;33304;52.456;13.328;2022-09-29T08:48:52;11.30;44.40
47576;DHT22;33304;52.456;13.328;2022-09-29T08:51:28;11.30;43.90
47576;DHT22;33304;52.456;13.328;2022-09-29T08:53:59;11.20;44.30
47576;DHT22;33304;52.456;13.328;2022-09-29T08:56:29;11.20;44.30
47576;DHT22;33304;52.456;13.328;2022-09-29T08:58:56;11.10;44.20
47576;DHT22;33304;52.456;13.328;2022-09-29T09:01:33;11.00;44.10
47576;DHT22;33304;52.456;13.328;2022-09-29T09:04:34;11.20;44.30
47576;DHT22;33304;52.456;13.328;2022-09-29T09:07:09;11.30;44.20
47576;DHT22;33304;52.456;13.328;2022-09-29T09:09:48;11.50;44.50
47576;DHT22;33304;52.456;13.328;2022-09-29T09:12:33;11.70;41.90
47576;DHT22;33304;52.456;13.328;2022-09-29T09:15:20;11.80;39.50
47576;DHT22;33304;52.456;13.328;2022-09-29T09:18:02;11.90;39.30
47576;DHT22;33304;52.456;13.328;2022-09-29T09:20:37;12.20;38.70
47576;DHT22;33304;52.456;13.328;2022-09-29T09:23:13;12.40;38.10
47576;DHT22;33304;52.456;13.328;2022-09-29T09:25:47;12.50;36.20
47576;DHT22;33304;52.456;13.328;2022-09-29T09:28:17;12.50;36.30
47576;DHT22;33304;52.456;13.328;2022-09-29T09:30:50;12.70;35.10
47576;DHT22;33304;52.456;13.328;2022-09-29T09:33:26;12.60;33.90
47576;DHT22;33304;52.456;13.328;2022-09-29T09:36:00;12.80;34.10
47576;DHT22;33304;52.456;13.328;2022-09-29T09:38:43;12.50;34.50
47576;DHT22;33304;52.456;13.328;2022-09-29T09:41:14;12.40;34.40
47576;DHT22;33304;52.456;13.328;2022-09-29T09:43:45;12.70;34.80
47576;DHT22;33304;52.456;13.328;2022-09-29T09:46:17;12.90;34.20
47576;DHT22;33304;52.456;13.328;2022-09-29T09:48:56;12.80;34.10
47576;DHT22;33304;52.456;13.328;2022-09-29T09:51:43;12.70;33.70
47576;DHT22;33304;52.456;13.328;2022-09-29T09:54:14;12.60;34.00
47576;DHT22;33304;52.456;13.328;2022-09-29T09:57:06;12.70;32.20
47576;DHT22;33304;52.456;13.328;2022-09-29T09:59:46;12.60;33.90
47576;DHT22;33304;52.456;13.328;2022-09-29T10:02:20;12.70;31.60
47576;DHT22;33304;52.456;13.328;2022-09-29T10:04:51;13.20;33.70
47576;DHT22;33304;52.456;13.328;2022-09-29T10:07:20;13.40;29.70
47576;DHT22;33304;52.456;13.328;2022-09-29T10:09:48;13.20;30.40
47576;DHT22;33304;52.456;13.328;2022-09-29T10:12:16;13.50;29.80
47576;DHT22;33304;52.456;13.328;2022-09-29T10:14:48;13.90;29.00
47576;DHT22;33304;52.456;13.328;2022-09-29T10:17:17;13.80;26.20
47576;DHT22;33304;52.456;13.328;2022-09-29T10:19:56;13.90;26.50
47576;DHT22;33304;52.456;13.328;2022-09-29T10:22:25;14.20;25.80
47576;DHT22;33304;52.456;13.328;2022-09-29T10:24:53;14.00;24.80
47576;DHT22;33304;52.456;13.328;2022-09-29T10:27:33;14.40;25.10
47576;DHT22;33304;52.456;13.328;2022-09-29T10:30:01;14.70;24.40
47576;DHT22;33304;52.456;13.328;2022-09-29T10:32:30;14.40;25.10
47576;DHT22;33304;52.456;13.328;2022-09-29T10:35:07;14.20;24.90
47576;DHT22;33304;52.456;13.328;2022-09-29T10:37:37;14.30;25.00
47576;DHT22;33304;52.456;13.328;2022-09-29T10:40:15;14.70;25.20
47576;DHT22;33304;52.456;13.328;2022-09-29T10:42:46;14.80;23.10
47576;DHT22;33304;52.456;13.328;2022-09-29T10:45:16;14.90;22.50
47576;DHT22;33304;52.456;13.328;2022-09-29T10:47:46;15.00;23.00
47576;DHT22;33304;52.456;13.328;2022-09-29T10:50:17;14.80;20.00
47576;DHT22;33304;52.456;13.328;2022-09-29T10:52:48;14.80;20.30
47576;DHT22;33304;52.456;13.328;2022-09-29T10:55:19;14.70;21.10
47576;DHT22;33304;52.456;13.328;2022-09-29T10:57:47;14.90;21.30
47576;DHT22;33304;52.456;13.328;2022-09-29T11:00:25;15.00;20.80
47576;DHT22;33304;52.456;13.328;2022-09-29T11:02:59;15.10;20.70
47576;DHT22;33304;52.456;13.328;2022-09-29T11:05:30;15.40;19.70
47576;DHT22;33304;52.456;13.328;2022-09-29T11:07:58;15.70;19.90
47576;DHT22;33304;52.456;13.328;2022-09-29T11:10:29;15.80;18.20
47576;DHT22;33304;52.456;13.328;2022-09-29T11:12:57;15.90;18.40
47576;DHT22;33304;52.456;13.328;2022-09-29T11:15:28;16.20;17.30
47576;DHT22;33304;52.456;13.328;2022-09-29T11:17:56;16.30;18.00
47576;DHT22;33304;52.456;13.328;2022-09-29T11:20:28;15.90;17.60
47576;DHT22;33304;52.456;13.328;2022-09-29T11:23:21;15.60;18.10
47576;DHT22;33304;52.456;13.328;2022-09-29T11:26:06;15.50;18.50
47576;DHT22;33304;52.456;13.328;2022-09-29T11:28:49;15.30;18.00
47576;DHT22;33304;52.456;13.328;2022-09-29T11:31:31;15.20;19.30
47576;DHT22;33304;52.456;13.328;2022-09-29T11:37:02;14.70;19.60
47576;DHT22;33304;52.456;13.328;2022-09-29T11:39:51;14.60;18.90
47576;DHT22;33304;52.456;13.328;2022-09-29T11:42:35;14.50;19.30
47576;DHT22;33304;52.456;13.328;2022-09-29T11:45:09;14.50;19.20
47576;DHT22;33304;52.456;13.328;2022-09-29T11:48:15;14.50;19.90
47576;DHT22;33304;52.456;13.328;2022-09-29T11:50:53;14.60;19.10
47576;DHT22;33304;52.456;13.328;2022-09-29T11:53:43;14.70;18.70
47576;DHT22;33304;52.456;13.328;2022-09-29T11:56:23;14.70;19.40
47576;DHT22;33304;52.456;13.328;2022-09-29T11:59:07;14.50;19.40
47576;DHT22;33304;52.456;13.328;2022-09-29T12:01:47;14.50;17.80
47576;DHT22;33304;52.456;13.328;2022-09-29T12:04:29;14.90;18.60
47576;DHT22;33304;52.456;13.328;2022-09-29T12:07:06;15.10;17.10
47576;DHT22;33304;52.456;13.328;2022-09-29T12:09:52;15.10;17.30
47576;DHT22;33304;52.456;13.328;2022-09-29T12:12:27;15.10;15.90
47576;DHT22;33304;52.456;13.328;2022-09-29T12:15:08;15.00;15.80
47576;DHT22;33304;52.456;13.328;2022-09-29T12:17:42;14.90;17.40
47576;DHT22;33304;52.456;13.328;2022-09-29T12:20:17;14.70;19.10
47576;DHT22;33304;52.456;13.328;2022-09-29T12:22:46;14.50;18.90
47576;DHT22;33304;52.456;13.328;2022-09-29T12:25:16;14.30;18.70
47576;DHT22;33304;52.456;13.328;2022-09-29T12:27:48;14.30;19.20
47576;DHT22;33304;52.456;13.328;2022-09-29T12:30:20;14.20;19.30
47576;DHT22;33304;52.456;13.328;2022-09-29T12:32:51;14.20;18.90
47576;DHT22;33304;52.456;13.328;2022-09-29T12:35:27;14.10;20.40
47576;DHT22;33304;52.456;13.328;2022-09-29T12:38:00;14.20;20.20
47576;DHT22;33304;52.456;13.328;2022-09-29T12:40:34;14.40;20.00
47576;DHT22;33304;52.456;13.328;2022-09-29T12:43:10;14.20;19.00
47576;DHT22;33304;52.456;13.328;2022-09-29T12:45:47;14.20;20.60
47576;DHT22;33304;52.456;13.328;2022-09-29T12:48:45;14.30;20.40
47576;DHT22;33304;52.456;13.328;2022-09-29T12:51:21;14.50;19.10
47576;DHT22;33304;52.456;13.328;2022-09-29T12:54:00;14.70;17.90
47576;DHT22;33304;52.456;13.328;2022-09-29T12:56:34;15.00;18.00
47576;DHT22;33304;52.456;13.328;2022-09-29T12:59:08;16.60;14.50
47576;DHT22;33304;52.456;13.328;2022-09-29T13:01:38;18.30;11.80
47576;DHT22;33304;52.456;13.328;2022-09-29T13:10:27;21.30;4.00
47576;DHT22;33304;52.456;13.328;2022-09-29T13:13:11;21.20;2.00
47576;DHT22;33304;52.456;13.328;2022-09-29T13:15:54;20.60;2.50
47576;DHT22;33304;52.456;13.328;2022-09-29T13:18:38;21.30;1.40
47576;DHT22;33304;52.456;13.328;2022-09-29T13:21:18;22.00;1.00
47576;DHT22;33304;52.456;13.328;2022-09-29T13:26:53;22.60;1.00
47576;DHT22;33304;52.456;13.328;2022-09-29T13:29:28;21.10;1.00
47576;DHT22;33304;52.456;13.328;2022-09-29T13:32:01;20.50;1.30
47576;DHT22;33304;52.456;13.328;2022-09-29T13:34:31;21.00;1.80
47576;DHT22;33304;52.456;13.328;2022-09-29T13:37:07;21.30;1.00
47576;DHT22;33304;52.456;13.328;2022-09-29T13:39:34;21.80;1.00
47576;DHT22;33304;52.456;13.328;2022-09-29T13:42:39;22.10;1.00
47576;DHT22;33304;52.456;13.328;2022-09-29T13:48:35;22.30;1.00
47576;DHT22;33304;52.456;13.328;2022-09-29T13:51:41;23.00;1.00
47576;DHT22;33304;52.456;13.328;2022-09-29T13:54:31;22.70;1.00
47576;DHT22;33304;52.456;13.328;2022-09-29T13:57:17;22.30;1.00
47576;DHT22;33304;52.456;13.328;2022-09-29T14:03:01;21.20;1.00
47576;DHT22;33304;52.456;13.328;2022-09-29T14:05:46;20.50;1.00
47576;DHT22;33304;52.456;13.328;2022-09-29T14:08:21;20.30;1.00
47576;DHT22;33304;52.456;13.328;2022-09-29T14:10:59;19.80;1.30
47576;DHT22;33304;52.456;13.328;2022-09-29T14:13:31;18.80;2.40
47576;DHT22;33304;52.456;13.328;2022-09-29T14:16:14;18.70;2.90
47576;DHT22;33304;52.456;13.328;2022-09-29T14:18:44;18.80;4.60
47576;DHT22;33304;52.456;13.328;2022-09-29T14:21:47;19.00;3.50
47576;DHT22;33304;52.456;13.328;2022-09-29T14:24:40;18.80;3.90
47576;DHT22;33304;52.456;13.328;2022-09-29T14:27:29;18.30;3.90
47576;DHT22;33304;52.456;13.328;2022-09-29T14:30:10;18.00;6.20
47576;DHT22;33304;52.456;13.328;2022-09-29T14:32:40;17.60;5.30
47576;DHT22;33304;52.456;13.328;2022-09-29T14:35:16;17.30;6.70
47576;DHT22;33304;52.456;13.328;2022-09-29T14:37:49;17.30;6.10
47576;DHT22;33304;52.456;13.328;2022-09-29T14:40:18;17.00;6.30
47576;DHT22;33304;52.456;13.328;2022-09-29T14:43:02;16.50;6.90
47576;DHT22;33304;52.456;13.328;2022-09-29T14:45:44;16.50;7.00
47576;DHT22;33304;52.456;13.328;2022-09-29T14:48:38;16.20;8.30
47576;DHT22;33304;52.456;13.328;2022-09-29T14:51:32;16.30;9.10
47576;DHT22;33304;52.456;13.328;2022-09-29T14:54:25;16.20;10.20
47576;DHT22;33304;52.456;13.328;2022-09-29T14:57:01;15.90;10.90
47576;DHT22;33304;52.456;13.328;2022-09-29T14:59:43;15.80;11.70
47576;DHT22;33304;52.456;13.328;2022-09-29T15:02:19;15.90;11.30
47576;DHT22;33304;52.456;13.328;2022-09-29T15:04:47;15.90;11.40
47576;DHT22;33304;52.456;13.328;2022-09-29T15:07:17;16.00;12.10
47576;DHT22;33304;52.456;13.328;2022-09-29T15:09:48;16.50;11.20
47576;DHT22;33304;52.456;13.328;2022-09-29T15:12:22;16.70;10.30
47576;DHT22;33304;52.456;13.328;2022-09-29T15:14:51;16.50;10.10
47576;DHT22;33304;52.456;13.328;2022-09-29T15:17:30;16.40;10.20
47576;DHT22;33304;52.456;13.328;2022-09-29T15:20:07;16.20;10.10
47576;DHT22;33304;52.456;13.328;2022-09-29T15:25:44;15.90;11.20
47576;DHT22;33304;52.456;13.328;2022-09-29T15:28:14;15.60;12.00
47576;DHT22;33304;52.456;13.328;2022-09-29T15:30:43;15.50;12.10
47576;DHT22;33304;52.456;13.328;2022-09-29T15:33:19;15.40;13.20
47576;DHT22;33304;52.456;13.328;2022-09-29T15:35:50;15.50;12.40
47576;DHT22;33304;52.456;13.328;2022-09-29T15:38:27;15.20;12.40
47576;DHT22;33304;52.456;13.328;2022-09-29T15:41:01;15.10;12.50
47576;DHT22;33304;52.456;13.328;2022-09-29T15:43:30;14.90;12.70
47576;DHT22;33304;52.456;13.328;2022-09-29T15:46:00;14.80;13.10
47576;DHT22;33304;52.456;13.328;2022-09-29T15:48:29;14.60;13.20
47576;DHT22;33304;52.456;13.328;2022-09-29T15:50:56;14.50;13.60
47576;DHT22;33304;52.456;13.328;2022-09-29T15:53:25;14.40;13.80
47576;DHT22;33304;52.456;13.328;2022-09-29T15:55:53;14.30;14.40
47576;DHT22;33304;52.456;13.328;2022-09-29T15:58:41;14.30;15.40
47576;DHT22;33304;52.456;13.328;2022-09-29T16:01:11;14.10;15.20
47576;DHT22;33304;52.456;13.328;2022-09-29T16:03:43;14.10;15.20
47576;DHT22;33304;52.456;13.328;2022-09-29T16:06:19;14.10;15.20
47576;DHT22;33304;52.456;13.328;2022-09-29T16:08:50;14.10;15.30
47576;DHT22;33304;52.456;13.328;2022-09-29T16:11:22;14.00;15.20
47576;DHT22;33304;52.456;13.328;2022-09-29T16:13:57;13.90;15.10
47576;DHT22;33304;52.456;13.328;2022-09-29T16:16:29;13.80;15.00
47576;DHT22;33304;52.456;13.328;2022-09-29T16:19:06;13.80;15.00
47576;DHT22;33304;52.456;13.328;2022-09-29T16:21:36;13.70;15.60